sensor_id;sensor_type;location;lat;lon;timestamp;P1;durP1;ratioP1;P2;durP2;ratioP2
18931;SDS011;9598;50.954;3.112;2022-08-21T00:02:32;5.43;;;2.50;;
18931;SDS011;9598;50.954;3.112;2022-08-21T00:07:35;4.53;;;2.40;;
18931;SDS011;9598;50.954;3.112;2022-08-21T00:12:37;5.75;;;2.60;;
18931;SDS011;9598;50.954;3.112;2022-08-21T00:17:43;5.38;;;2.65;;
18931;SDS011;9598;50.954;3.112;2022-08-21T00:22:46;4.68;;;2.50;;
18931;SDS011;9598;50.954;3.112;2022-08-21T00:27:49;5.03;;;2.83;;
18931;SDS011;9598;50.954;3.112;2022-08-21T00:32:52;4.45;;;2.70;;
18931;SDS011;9598;50.954;3.112;2022-08-21T00:37:57;5.35;;;2.97;;
18931;SDS011;9598;50.954;3.112;2022-08-21T00:43:01;5.13;;;2.75;;
18931;SDS011;9598;50.954;3.112;2022-08-21T00:48:05;6.90;;;3.17;;
18931;SDS011;9598;50.954;3.112;2022-08-21T00:53:09;6.78;;;3.15;;
18931;SDS011;9598;50.954;3.112;2022-08-21T00:58:13;7.05;;;2.97;;
18931;SDS011;9598;50.954;3.112;2022-08-21T01:03:18;5.65;;;2.50;;
18931;SDS011;9598;50.954;3.112;2022-08-21T01:08:23;5.72;;;2.53;;
18931;SDS011;9598;50.954;3.112;2022-08-21T01:13:26;6.35;;;3.30;;
18931;SDS011;9598;50.954;3.112;2022-08-21T01:18:30;6.05;;;2.40;;
18931;SDS011;9598;50.954;3.112;2022-08-21T01:23:34;3.53;;;2.33;;
18931;SDS011;9598;50.954;3.112;2022-08-21T01:33:57;3.78;;;2.45;;
18931;SDS011;9598;50.954;3.112;2022-08-21T01:39:00;4.85;;;2.50;;
18931;SDS011;9598;50.954;3.112;2022-08-21T01:44:03;4.88;;;2.90;;
18931;SDS011;9598;50.954;3.112;2022-08-21T01:49:05;4.40;;;2.50;;
18931;SDS011;9598;50.954;3.112;2022-08-21T01:54:09;8.45;;;3.03;;
18931;SDS011;9598;50.954;3.112;2022-08-21T01:59:11;7.22;;;2.63;;
18931;SDS011;9598;50.954;3.112;2022-08-21T02:04:13;6.03;;;2.75;;
18931;SDS011;9598;50.954;3.112;2022-08-21T02:09:17;5.60;;;2.90;;
18931;SDS011;9598;50.954;3.112;2022-08-21T02:14:21;3.90;;;2.55;;
18931;SDS011;9598;50.954;3.112;2022-08-21T02:19:23;5.68;;;2.75;;
18931;SDS011;9598;50.954;3.112;2022-08-21T02:24:27;7.00;;;3.22;;
18931;SDS011;9598;50.954;3.112;2022-08-21T02:29:29;4.30;;;2.33;;
18931;SDS011;9598;50.954;3.112;2022-08-21T02:34:31;5.55;;;2.75;;
18931;SDS011;9598;50.954;3.112;2022-08-21T02:39:34;4.13;;;2.58;;
18931;SDS011;9598;50.954;3.112;2022-08-21T02:44:36;4.90;;;2.67;;
18931;SDS011;9598;50.954;3.112;2022-08-21T02:49:38;5.55;;;2.70;;
18931;SDS011;9598;50.954;3.112;2022-08-21T02:54:42;7.50;;;3.55;;
18931;SDS011;9598;50.954;3.112;2022-08-21T02:59:44;4.40;;;3.45;;
18931;SDS011;9598;50.954;3.112;2022-08-21T03:04:47;6.75;;;3.28;;
18931;SDS011;9598;50.954;3.112;2022-08-21T03:09:51;5.22;;;3.50;;
18931;SDS011;9598;50.954;3.112;2022-08-21T03:14:53;7.28;;;4.25;;
18931;SDS011;9598;50.954;3.112;2022-08-21T03:19:55;5.88;;;3.53;;
18931;SDS011;9598;50.954;3.112;2022-08-21T03:25:02;7.03;;;4.32;;
18931;SDS011;9598;50.954;3.112;2022-08-21T03:30:06;5.43;;;3.63;;
18931;SDS011;9598;50.954;3.112;2022-08-21T03:35:09;7.03;;;3.17;;
18931;SDS011;9598;50.954;3.112;2022-08-21T03:40:16;8.77;;;4.05;;
18931;SDS011;9598;50.954;3.112;2022-08-21T03:45:20;7.60;;;3.80;;
18931;SDS011;9598;50.954;3.112;2022-08-21T03:50:23;7.95;;;3.97;;
18931;SDS011;9598;50.954;3.112;2022-08-21T03:55:28;5.90;;;3.47;;
18931;SDS011;9598;50.954;3.112;2022-08-21T04:00:31;5.47;;;3.95;;
18931;SDS011;9598;50.954;3.112;2022-08-21T04:05:33;6.50;;;3.22;;
18931;SDS011;9598;50.954;3.112;2022-08-21T04:10:42;4.45;;;2.80;;
18931;SDS011;9598;50.954;3.112;2022-08-21T04:15:49;6.15;;;3.38;;
18931;SDS011;9598;50.954;3.112;2022-08-21T04:20:52;9.13;;;3.65;;
18931;SDS011;9598;50.954;3.112;2022-08-21T04:25:57;5.47;;;3.80;;
18931;SDS011;9598;50.954;3.112;2022-08-21T04:30:59;7.63;;;4.22;;
18931;SDS011;9598;50.954;3.112;2022-08-21T04:36:02;7.60;;;3.67;;
18931;SDS011;9598;50.954;3.112;2022-08-21T04:41:06;7.43;;;3.58;;
18931;SDS011;9598;50.954;3.112;2022-08-21T04:46:08;5.43;;;3.63;;
18931;SDS011;9598;50.954;3.112;2022-08-21T04:51:11;7.68;;;3.38;;
18931;SDS011;9598;50.954;3.112;2022-08-21T04:56:19;6.38;;;3.30;;
18931;SDS011;9598;50.954;3.112;2022-08-21T05:01:24;5.55;;;3.95;;
18931;SDS011;9598;50.954;3.112;2022-08-21T05:06:28;4.65;;;3.97;;
18931;SDS011;9598;50.954;3.112;2022-08-21T05:11:36;9.88;;;4.30;;
18931;SDS011;9598;50.954;3.112;2022-08-21T05:16:38;7.25;;;3.67;;
18931;SDS011;9598;50.954;3.112;2022-08-21T05:21:43;8.65;;;4.75;;
18931;SDS011;9598;50.954;3.112;2022-08-21T05:26:48;8.30;;;4.10;;
18931;SDS011;9598;50.954;3.112;2022-08-21T05:31:50;7.20;;;4.50;;
18931;SDS011;9598;50.954;3.112;2022-08-21T05:36:53;8.45;;;4.88;;
18931;SDS011;9598;50.954;3.112;2022-08-21T05:41:56;9.15;;;4.60;;
18931;SDS011;9598;50.954;3.112;2022-08-21T05:47:02;7.28;;;4.15;;
18931;SDS011;9598;50.954;3.112;2022-08-21T05:52:05;7.53;;;4.18;;
18931;SDS011;9598;50.954;3.112;2022-08-21T05:57:08;7.68;;;4.30;;
18931;SDS011;9598;50.954;3.112;2022-08-21T06:02:10;6.85;;;4.15;;
18931;SDS011;9598;50.954;3.112;2022-08-21T06:07:12;11.75;;;4.72;;
18931;SDS011;9598;50.954;3.112;2022-08-21T06:12:15;9.20;;;4.20;;
18931;SDS011;9598;50.954;3.112;2022-08-21T06:17:19;8.55;;;4.13;;
18931;SDS011;9598;50.954;3.112;2022-08-21T06:22:21;9.43;;;4.68;;
18931;SDS011;9598;50.954;3.112;2022-08-21T06:27:25;9.93;;;4.60;;
18931;SDS011;9598;50.954;3.112;2022-08-21T06:32:27;8.60;;;4.38;;
18931;SDS011;9598;50.954;3.112;2022-08-21T06:37:29;7.82;;;4.55;;
18931;SDS011;9598;50.954;3.112;2022-08-21T06:42:33;8.20;;;4.25;;
18931;SDS011;9598;50.954;3.112;2022-08-21T06:47:35;10.88;;;4.80;;
18931;SDS011;9598;50.954;3.112;2022-08-21T06:52:37;9.90;;;4.65;;
18931;SDS011;9598;50.954;3.112;2022-08-21T06:57:40;9.73;;;4.72;;
18931;SDS011;9598;50.954;3.112;2022-08-21T07:02:42;10.43;;;5.18;;
18931;SDS011;9598;50.954;3.112;2022-08-21T07:07:45;9.85;;;5.50;;
18931;SDS011;9598;50.954;3.112;2022-08-21T07:12:49;15.13;;;5.30;;
18931;SDS011;9598;50.954;3.112;2022-08-21T07:17:52;9.05;;;5.32;;
18931;SDS011;9598;50.954;3.112;2022-08-21T07:22:54;14.13;;;5.88;;
18931;SDS011;9598;50.954;3.112;2022-08-21T07:27:59;9.63;;;5.30;;
18931;SDS011;9598;50.954;3.112;2022-08-21T07:33:01;10.30;;;6.05;;
18931;SDS011;9598;50.954;3.112;2022-08-21T07:38:03;11.63;;;5.22;;
18931;SDS011;9598;50.954;3.112;2022-08-21T07:43:07;9.20;;;5.20;;
18931;SDS011;9598;50.954;3.112;2022-08-21T07:48:09;7.75;;;4.75;;
18931;SDS011;9598;50.954;3.112;2022-08-21T07:53:11;10.90;;;4.85;;
18931;SDS011;9598;50.954;3.112;2022-08-21T07:58:15;14.63;;;4.78;;
18931;SDS011;9598;50.954;3.112;2022-08-21T08:03:17;9.85;;;4.78;;
18931;SDS011;9598;50.954;3.112;2022-08-21T08:08:19;10.20;;;4.90;;
18931;SDS011;9598;50.954;3.112;2022-08-21T08:13:22;14.80;;;4.82;;
18931;SDS011;9598;50.954;3.112;2022-08-21T08:18:25;11.07;;;4.57;;
18931;SDS011;9598;50.954;3.112;2022-08-21T08:23:27;7.68;;;3.95;;
18931;SDS011;9598;50.954;3.112;2022-08-21T08:28:32;9.50;;;3.72;;
18931;SDS011;9598;50.954;3.112;2022-08-21T08:33:35;11.10;;;3.97;;
18931;SDS011;9598;50.954;3.112;2022-08-21T08:38:37;8.95;;;4.22;;
18931;SDS011;9598;50.954;3.112;2022-08-21T08:43:41;7.93;;;3.85;;
18931;SDS011;9598;50.954;3.112;2022-08-21T08:48:51;10.75;;;4.38;;
18931;SDS011;9598;50.954;3.112;2022-08-21T08:53:58;8.32;;;3.40;;
18931;SDS011;9598;50.954;3.112;2022-08-21T08:59:05;8.35;;;3.90;;
18931;SDS011;9598;50.954;3.112;2022-08-21T09:04:11;8.60;;;3.70;;
18931;SDS011;9598;50.954;3.112;2022-08-21T09:09:18;9.88;;;3.05;;
18931;SDS011;9598;50.954;3.112;2022-08-21T09:14:37;7.15;;;3.33;;
18931;SDS011;9598;50.954;3.112;2022-08-21T09:19:56;6.47;;;2.72;;
18931;SDS011;9598;50.954;3.112;2022-08-21T09:25:08;6.53;;;2.72;;
18931;SDS011;9598;50.954;3.112;2022-08-21T09:30:19;9.65;;;3.05;;
18931;SDS011;9598;50.954;3.112;2022-08-21T09:35:28;6.65;;;2.50;;
18931;SDS011;9598;50.954;3.112;2022-08-21T09:40:32;6.80;;;2.53;;
18931;SDS011;9598;50.954;3.112;2022-08-21T09:45:38;5.85;;;2.60;;
18931;SDS011;9598;50.954;3.112;2022-08-21T09:50:42;8.02;;;2.60;;
18931;SDS011;9598;50.954;3.112;2022-08-21T09:55:48;6.65;;;3.38;;
18931;SDS011;9598;50.954;3.112;2022-08-21T10:01:18;10.07;;;3.10;;
18931;SDS011;9598;50.954;3.112;2022-08-21T10:06:23;7.80;;;2.92;;
18931;SDS011;9598;50.954;3.112;2022-08-21T10:11:27;10.88;;;2.70;;
18931;SDS011;9598;50.954;3.112;2022-08-21T10:16:33;7.75;;;2.97;;
18931;SDS011;9598;50.954;3.112;2022-08-21T10:21:54;8.88;;;2.88;;
18931;SDS011;9598;50.954;3.112;2022-08-21T10:27:10;7.45;;;2.20;;
18931;SDS011;9598;50.954;3.112;2022-08-21T10:32:28;6.25;;;2.40;;
18931;SDS011;9598;50.954;3.112;2022-08-21T10:37:44;4.70;;;2.15;;
18931;SDS011;9598;50.954;3.112;2022-08-21T10:43:01;7.55;;;2.97;;
18931;SDS011;9598;50.954;3.112;2022-08-21T10:48:16;5.70;;;2.50;;
18931;SDS011;9598;50.954;3.112;2022-08-21T10:53:29;5.25;;;2.35;;
18931;SDS011;9598;50.954;3.112;2022-08-21T10:58:45;6.47;;;2.55;;
18931;SDS011;9598;50.954;3.112;2022-08-21T11:03:54;7.45;;;2.72;;
18931;SDS011;9598;50.954;3.112;2022-08-21T11:09:11;8.45;;;3.20;;
18931;SDS011;9598;50.954;3.112;2022-08-21T11:14:17;6.60;;;2.83;;
18931;SDS011;9598;50.954;3.112;2022-08-21T11:19:27;8.38;;;2.72;;
18931;SDS011;9598;50.954;3.112;2022-08-21T11:24:35;5.57;;;2.42;;
18931;SDS011;9598;50.954;3.112;2022-08-21T11:29:47;6.32;;;2.45;;
18931;SDS011;9598;50.954;3.112;2022-08-21T11:34:54;6.95;;;3.00;;
18931;SDS011;9598;50.954;3.112;2022-08-21T11:40:04;7.18;;;2.90;;
18931;SDS011;9598;50.954;3.112;2022-08-21T11:45:17;7.13;;;3.08;;
18931;SDS011;9598;50.954;3.112;2022-08-21T11:50:29;7.50;;;2.10;;
18931;SDS011;9598;50.954;3.112;2022-08-21T11:55:34;6.30;;;2.95;;
18931;SDS011;9598;50.954;3.112;2022-08-21T12:00:42;6.38;;;2.30;;
18931;SDS011;9598;50.954;3.112;2022-08-21T12:05:53;7.13;;;2.22;;
18931;SDS011;9598;50.954;3.112;2022-08-21T12:11:02;8.77;;;2.60;;
18931;SDS011;9598;50.954;3.112;2022-08-21T12:16:07;7.13;;;2.60;;
18931;SDS011;9598;50.954;3.112;2022-08-21T12:21:22;8.80;;;2.53;;
18931;SDS011;9598;50.954;3.112;2022-08-21T12:26:27;9.70;;;2.90;;
18931;SDS011;9598;50.954;3.112;2022-08-21T12:31:31;5.65;;;2.33;;
18931;SDS011;9598;50.954;3.112;2022-08-21T12:36:40;6.50;;;2.30;;
18931;SDS011;9598;50.954;3.112;2022-08-21T12:41:47;11.43;;;3.17;;
18931;SDS011;9598;50.954;3.112;2022-08-21T12:46:55;5.55;;;2.70;;
18931;SDS011;9598;50.954;3.112;2022-08-21T12:52:02;8.50;;;2.78;;
18931;SDS011;9598;50.954;3.112;2022-08-21T12:57:17;8.73;;;2.42;;
18931;SDS011;9598;50.954;3.112;2022-08-21T13:02:21;8.07;;;2.75;;
18931;SDS011;9598;50.954;3.112;2022-08-21T13:07:28;8.85;;;2.60;;
18931;SDS011;9598;50.954;3.112;2022-08-21T13:12:33;7.65;;;2.60;;
18931;SDS011;9598;50.954;3.112;2022-08-21T13:17:38;8.23;;;3.47;;
18931;SDS011;9598;50.954;3.112;2022-08-21T13:22:44;9.27;;;3.25;;
18931;SDS011;9598;50.954;3.112;2022-08-21T13:27:56;5.40;;;2.70;;
18931;SDS011;9598;50.954;3.112;2022-08-21T13:33:01;5.35;;;2.50;;
18931;SDS011;9598;50.954;3.112;2022-08-21T13:38:09;6.18;;;2.20;;
18931;SDS011;9598;50.954;3.112;2022-08-21T13:43:11;5.57;;;2.55;;
18931;SDS011;9598;50.954;3.112;2022-08-21T13:48:17;7.57;;;2.90;;
18931;SDS011;9598;50.954;3.112;2022-08-21T13:53:23;10.57;;;3.08;;
18931;SDS011;9598;50.954;3.112;2022-08-21T13:58:32;6.45;;;2.92;;
18931;SDS011;9598;50.954;3.112;2022-08-21T14:03:45;7.13;;;2.30;;
18931;SDS011;9598;50.954;3.112;2022-08-21T14:08:51;5.75;;;2.50;;
18931;SDS011;9598;50.954;3.112;2022-08-21T14:13:58;7.75;;;2.80;;
18931;SDS011;9598;50.954;3.112;2022-08-21T14:19:08;5.88;;;2.58;;
18931;SDS011;9598;50.954;3.112;2022-08-21T14:24:24;6.22;;;2.33;;
18931;SDS011;9598;50.954;3.112;2022-08-21T14:29:27;4.95;;;2.15;;
18931;SDS011;9598;50.954;3.112;2022-08-21T14:34:33;5.32;;;2.70;;
18931;SDS011;9598;50.954;3.112;2022-08-21T14:39:37;4.75;;;2.40;;
18931;SDS011;9598;50.954;3.112;2022-08-21T14:44:39;7.25;;;2.47;;
18931;SDS011;9598;50.954;3.112;2022-08-21T14:49:41;6.13;;;2.78;;
18931;SDS011;9598;50.954;3.112;2022-08-21T14:54:44;6.78;;;2.50;;
18931;SDS011;9598;50.954;3.112;2022-08-21T14:59:46;5.00;;;2.70;;
18931;SDS011;9598;50.954;3.112;2022-08-21T15:04:49;7.60;;;2.90;;
18931;SDS011;9598;50.954;3.112;2022-08-21T15:09:52;5.07;;;2.53;;
18931;SDS011;9598;50.954;3.112;2022-08-21T15:14:54;11.65;;;3.30;;
18931;SDS011;9598;50.954;3.112;2022-08-21T15:19:57;6.28;;;2.55;;
18931;SDS011;9598;50.954;3.112;2022-08-21T15:25:00;6.82;;;2.33;;
18931;SDS011;9598;50.954;3.112;2022-08-21T15:30:03;7.72;;;2.55;;
18931;SDS011;9598;50.954;3.112;2022-08-21T15:35:06;8.18;;;3.00;;
18931;SDS011;9598;50.954;3.112;2022-08-21T15:40:10;5.38;;;2.17;;
18931;SDS011;9598;50.954;3.112;2022-08-21T15:45:13;6.85;;;2.45;;
18931;SDS011;9598;50.954;3.112;2022-08-21T15:50:16;4.25;;;2.38;;
18931;SDS011;9598;50.954;3.112;2022-08-21T15:55:20;3.75;;;2.40;;
18931;SDS011;9598;50.954;3.112;2022-08-21T16:00:23;5.85;;;2.33;;
18931;SDS011;9598;50.954;3.112;2022-08-21T16:05:25;6.07;;;2.78;;
18931;SDS011;9598;50.954;3.112;2022-08-21T16:10:29;13.18;;;4.07;;
18931;SDS011;9598;50.954;3.112;2022-08-21T16:15:31;9.13;;;3.10;;
18931;SDS011;9598;50.954;3.112;2022-08-21T16:20:33;8.48;;;3.88;;
18931;SDS011;9598;50.954;3.112;2022-08-21T16:25:37;10.90;;;3.60;;
18931;SDS011;9598;50.954;3.112;2022-08-21T16:30:41;12.85;;;3.30;;
18931;SDS011;9598;50.954;3.112;2022-08-21T16:35:44;8.00;;;3.75;;
18931;SDS011;9598;50.954;3.112;2022-08-21T16:40:48;11.10;;;3.92;;
18931;SDS011;9598;50.954;3.112;2022-08-21T16:45:51;10.50;;;3.40;;
18931;SDS011;9598;50.954;3.112;2022-08-21T16:50:54;10.10;;;4.07;;
18931;SDS011;9598;50.954;3.112;2022-08-21T16:55:57;9.43;;;3.42;;
18931;SDS011;9598;50.954;3.112;2022-08-21T17:01:03;10.63;;;3.42;;
18931;SDS011;9598;50.954;3.112;2022-08-21T17:06:08;7.68;;;3.38;;
18931;SDS011;9598;50.954;3.112;2022-08-21T17:11:13;9.23;;;3.58;;
18931;SDS011;9598;50.954;3.112;2022-08-21T17:16:31;9.82;;;4.15;;
18931;SDS011;9598;50.954;3.112;2022-08-21T17:21:33;10.32;;;4.00;;
18931;SDS011;9598;50.954;3.112;2022-08-21T17:26:37;7.88;;;3.75;;
18931;SDS011;9598;50.954;3.112;2022-08-21T17:31:39;11.45;;;3.33;;
18931;SDS011;9598;50.954;3.112;2022-08-21T17:36:43;11.02;;;3.25;;
18931;SDS011;9598;50.954;3.112;2022-08-21T17:41:46;8.38;;;3.20;;
18931;SDS011;9598;50.954;3.112;2022-08-21T17:46:49;8.32;;;3.58;;
18931;SDS011;9598;50.954;3.112;2022-08-21T17:51:52;11.55;;;3.42;;
18931;SDS011;9598;50.954;3.112;2022-08-21T17:56:56;8.23;;;3.28;;
18931;SDS011;9598;50.954;3.112;2022-08-21T18:01:59;6.97;;;3.60;;
18931;SDS011;9598;50.954;3.112;2022-08-21T18:07:02;8.15;;;3.42;;
18931;SDS011;9598;50.954;3.112;2022-08-21T18:12:05;7.18;;;3.28;;
18931;SDS011;9598;50.954;3.112;2022-08-21T18:17:09;8.15;;;3.92;;
18931;SDS011;9598;50.954;3.112;2022-08-21T18:22:14;8.90;;;3.22;;
18931;SDS011;9598;50.954;3.112;2022-08-21T18:27:18;11.63;;;4.45;;
18931;SDS011;9598;50.954;3.112;2022-08-21T18:32:22;12.00;;;4.10;;
18931;SDS011;9598;50.954;3.112;2022-08-21T18:37:26;9.05;;;3.72;;
18931;SDS011;9598;50.954;3.112;2022-08-21T18:42:30;8.75;;;3.17;;
18931;SDS011;9598;50.954;3.112;2022-08-21T18:47:39;6.38;;;3.08;;
18931;SDS011;9598;50.954;3.112;2022-08-21T18:52:42;8.32;;;3.55;;
18931;SDS011;9598;50.954;3.112;2022-08-21T18:57:46;7.95;;;3.30;;
18931;SDS011;9598;50.954;3.112;2022-08-21T19:02:48;9.98;;;3.53;;
18931;SDS011;9598;50.954;3.112;2022-08-21T19:07:50;8.88;;;3.40;;
18931;SDS011;9598;50.954;3.112;2022-08-21T19:12:54;8.50;;;3.53;;
18931;SDS011;9598;50.954;3.112;2022-08-21T19:17:57;8.20;;;3.35;;
18931;SDS011;9598;50.954;3.112;2022-08-21T19:22:59;9.88;;;3.40;;
18931;SDS011;9598;50.954;3.112;2022-08-21T19:28:03;9.75;;;4.47;;
18931;SDS011;9598;50.954;3.112;2022-08-21T19:33:09;8.88;;;3.55;;
18931;SDS011;9598;50.954;3.112;2022-08-21T19:38:16;8.52;;;3.50;;
18931;SDS011;9598;50.954;3.112;2022-08-21T19:43:20;8.85;;;3.65;;
18931;SDS011;9598;50.954;3.112;2022-08-21T19:48:22;9.07;;;3.60;;
18931;SDS011;9598;50.954;3.112;2022-08-21T19:53:25;6.97;;;4.10;;
18931;SDS011;9598;50.954;3.112;2022-08-21T19:58:33;9.93;;;4.60;;
18931;SDS011;9598;50.954;3.112;2022-08-21T20:03:39;9.13;;;4.10;;
18931;SDS011;9598;50.954;3.112;2022-08-21T20:08:41;9.45;;;4.47;;
18931;SDS011;9598;50.954;3.112;2022-08-21T20:13:44;9.18;;;5.00;;
18931;SDS011;9598;50.954;3.112;2022-08-21T20:18:46;9.13;;;4.43;;
18931;SDS011;9598;50.954;3.112;2022-08-21T20:23:49;10.43;;;4.80;;
18931;SDS011;9598;50.954;3.112;2022-08-21T20:28:52;8.25;;;4.35;;
18931;SDS011;9598;50.954;3.112;2022-08-21T20:33:54;10.05;;;4.40;;
18931;SDS011;9598;50.954;3.112;2022-08-21T20:38:56;9.55;;;4.90;;
18931;SDS011;9598;50.954;3.112;2022-08-21T20:44:00;9.35;;;4.68;;
18931;SDS011;9598;50.954;3.112;2022-08-21T20:49:03;9.38;;;4.45;;
18931;SDS011;9598;50.954;3.112;2022-08-21T20:54:13;13.00;;;5.32;;
18931;SDS011;9598;50.954;3.112;2022-08-21T20:59:36;10.23;;;5.18;;
18931;SDS011;9598;50.954;3.112;2022-08-21T21:04:44;11.70;;;5.55;;
18931;SDS011;9598;50.954;3.112;2022-08-21T21:09:50;9.55;;;5.22;;
18931;SDS011;9598;50.954;3.112;2022-08-21T21:14:57;9.25;;;5.38;;
18931;SDS011;9598;50.954;3.112;2022-08-21T21:20:06;9.73;;;6.10;;
18931;SDS011;9598;50.954;3.112;2022-08-21T21:25:12;12.15;;;6.53;;
18931;SDS011;9598;50.954;3.112;2022-08-21T21:30:19;11.27;;;6.40;;
18931;SDS011;9598;50.954;3.112;2022-08-21T21:35:24;14.95;;;6.65;;
18931;SDS011;9598;50.954;3.112;2022-08-21T21:40:34;9.43;;;6.75;;
18931;SDS011;9598;50.954;3.112;2022-08-21T21:45:52;13.63;;;9.38;;
18931;SDS011;9598;50.954;3.112;2022-08-21T21:51:05;14.32;;;9.45;;
18931;SDS011;9598;50.954;3.112;2022-08-21T21:56:15;15.70;;;9.15;;
18931;SDS011;9598;50.954;3.112;2022-08-21T22:01:33;10.75;;;7.60;;
18931;SDS011;9598;50.954;3.112;2022-08-21T22:06:41;10.68;;;6.68;;
18931;SDS011;9598;50.954;3.112;2022-08-21T22:11:57;15.98;;;7.50;;
18931;SDS011;9598;50.954;3.112;2022-08-21T22:17:06;9.93;;;7.03;;
18931;SDS011;9598;50.954;3.112;2022-08-21T22:22:14;11.77;;;6.80;;
18931;SDS011;9598;50.954;3.112;2022-08-21T22:27:19;12.57;;;7.30;;
18931;SDS011;9598;50.954;3.112;2022-08-21T22:32:28;13.38;;;7.28;;
18931;SDS011;9598;50.954;3.112;2022-08-21T22:37:37;18.10;;;8.07;;
18931;SDS011;9598;50.954;3.112;2022-08-21T22:42:40;11.52;;;7.10;;
18931;SDS011;9598;50.954;3.112;2022-08-21T22:47:44;12.18;;;8.05;;
18931;SDS011;9598;50.954;3.112;2022-08-21T22:52:49;12.02;;;8.43;;
18931;SDS011;9598;50.954;3.112;2022-08-21T22:58:02;12.85;;;9.23;;
18931;SDS011;9598;50.954;3.112;2022-08-21T23:03:12;12.38;;;9.23;;
18931;SDS011;9598;50.954;3.112;2022-08-21T23:08:23;14.00;;;9.38;;
18931;SDS011;9598;50.954;3.112;2022-08-21T23:13:36;13.55;;;9.85;;
18931;SDS011;9598;50.954;3.112;2022-08-21T23:18:46;13.90;;;8.85;;
18931;SDS011;9598;50.954;3.112;2022-08-21T23:23:59;16.25;;;9.63;;
18931;SDS011;9598;50.954;3.112;2022-08-21T23:29:15;13.45;;;8.90;;
18931;SDS011;9598;50.954;3.112;2022-08-21T23:34:27;13.98;;;8.98;;
18931;SDS011;9598;50.954;3.112;2022-08-21T23:39:46;11.70;;;9.13;;
18931;SDS011;9598;50.954;3.112;2022-08-21T23:44:58;11.43;;;8.50;;
18931;SDS011;9598;50.954;3.112;2022-08-21T23:50:10;12.02;;;8.30;;
18931;SDS011;9598;50.954;3.112;2022-08-21T23:55:17;14.15;;;9.07;;
